sensor_id;sensor_type;location;lat;lon;timestamp;pressure;altitude;pressure_sealevel;temperature;humidity
8039;BME280;4062;49.844;8.120;2023-01-24T00:01:04;101023.00;;;13.87;55.65
8039;BME280;4062;49.844;8.120;2023-01-24T00:03:05;101021.22;;;13.87;55.67
8039;BME280;4062;49.844;8.120;2023-01-24T00:05:06;101028.31;;;13.87;55.71
8039;BME280;4062;49.844;8.120;2023-01-24T00:07:06;101019.47;;;13.86;55.69
8039;BME280;4062;49.844;8.120;2023-01-24T00:09:07;101022.13;;;13.86;55.78
8039;BME280;4062;49.844;8.120;2023-01-24T00:11:10;101030.09;;;13.86;55.89
8039;BME280;4062;49.844;8.120;2023-01-24T00:13:12;101019.47;;;13.86;55.83
8039;BME280;4062;49.844;8.120;2023-01-24T00:15:12;101015.94;;;13.86;55.79
8039;BME280;4062;49.844;8.120;2023-01-24T00:17:13;101021.25;;;13.86;56.06
8039;BME280;4062;49.844;8.120;2023-01-24T00:19:14;101015.94;;;13.86;55.71
8039;BME280;4062;49.844;8.120;2023-01-24T00:21:17;101015.94;;;13.86;55.63
8039;BME280;4062;49.844;8.120;2023-01-24T00:23:17;101016.84;;;13.85;55.91
8039;BME280;4062;49.844;8.120;2023-01-24T00:25:18;101022.16;;;13.85;55.89
8039;BME280;4062;49.844;8.120;2023-01-24T00:27:18;101031.00;;;13.85;56.10
8039;BME280;4062;49.844;8.120;2023-01-24T00:29:19;101027.47;;;13.85;55.86
8039;BME280;4062;49.844;8.120;2023-01-24T00:31:19;101030.13;;;13.85;56.23
8039;BME280;4062;49.844;8.120;2023-01-24T00:33:20;101030.13;;;13.85;55.84
8039;BME280;4062;49.844;8.120;2023-01-24T00:35:23;101033.66;;;13.84;55.83
8039;BME280;4062;49.844;8.120;2023-01-24T00:37:24;101032.78;;;13.85;55.92
8039;BME280;4062;49.844;8.120;2023-01-24T00:39:25;101023.03;;;13.84;55.85
8039;BME280;4062;49.844;8.120;2023-01-24T00:41:27;101021.28;;;13.83;55.89
8039;BME280;4062;49.844;8.120;2023-01-24T00:43:28;101027.50;;;13.83;55.74
8039;BME280;4062;49.844;8.120;2023-01-24T00:45:28;101019.53;;;13.83;55.85
8039;BME280;4062;49.844;8.120;2023-01-24T00:47:29;101023.94;;;13.83;55.72
8039;BME280;4062;49.844;8.120;2023-01-24T00:49:29;101024.84;;;13.83;55.91
8039;BME280;4062;49.844;8.120;2023-01-24T00:51:33;101021.28;;;13.83;55.87
8039;BME280;4062;49.844;8.120;2023-01-24T00:53:34;101018.63;;;13.83;55.88
8039;BME280;4062;49.844;8.120;2023-01-24T00:55:41;101019.50;;;13.82;55.88
8039;BME280;4062;49.844;8.120;2023-01-24T00:57:41;101020.41;;;13.82;55.93
8039;BME280;4062;49.844;8.120;2023-01-24T00:59:42;101015.97;;;13.83;55.91
8039;BME280;4062;49.844;8.120;2023-01-24T01:01:42;101021.31;;;13.81;55.93
8039;BME280;4062;49.844;8.120;2023-01-24T01:03:44;101015.13;;;13.81;55.91
8039;BME280;4062;49.844;8.120;2023-01-24T01:05:44;101014.19;;;13.82;55.83
8039;BME280;4062;49.844;8.120;2023-01-24T01:07:45;101016.00;;;13.81;55.79
8039;BME280;4062;49.844;8.120;2023-01-24T01:09:46;101015.13;;;13.81;55.84
8039;BME280;4062;49.844;8.120;2023-01-24T01:11:46;101018.69;;;13.80;55.77
8039;BME280;4062;49.844;8.120;2023-01-24T01:13:47;101017.78;;;13.81;55.96
8039;BME280;4062;49.844;8.120;2023-01-24T01:15:50;101021.34;;;13.80;56.00
8039;BME280;4062;49.844;8.120;2023-01-24T01:17:50;101018.69;;;13.80;55.89
8039;BME280;4062;49.844;8.120;2023-01-24T01:19:51;101024.00;;;13.80;55.96
8039;BME280;4062;49.844;8.120;2023-01-24T01:21:52;101024.00;;;13.80;55.92
8039;BME280;4062;49.844;8.120;2023-01-24T01:23:52;101021.34;;;13.80;55.81
8039;BME280;4062;49.844;8.120;2023-01-24T01:25:53;101020.44;;;13.79;55.76
8039;BME280;4062;49.844;8.120;2023-01-24T01:27:58;101021.34;;;13.80;55.97
8039;BME280;4062;49.844;8.120;2023-01-24T01:29:58;101021.34;;;13.80;55.89
8039;BME280;4062;49.844;8.120;2023-01-24T01:32:00;101021.34;;;13.80;55.89
8039;BME280;4062;49.844;8.120;2023-01-24T01:34:00;101019.56;;;13.79;56.02
8039;BME280;4062;49.844;8.120;2023-01-24T01:36:01;101029.31;;;13.78;55.83
8039;BME280;4062;49.844;8.120;2023-01-24T01:38:01;101028.41;;;13.79;55.71
8039;BME280;4062;49.844;8.120;2023-01-24T01:40:02;101016.91;;;13.79;55.94
8039;BME280;4062;49.844;8.120;2023-01-24T01:42:02;101019.56;;;13.79;55.59
8039;BME280;4062;49.844;8.120;2023-01-24T01:44:35;101018.66;;;13.78;55.87
8039;BME280;4062;49.844;8.120;2023-01-24T01:46:44;101023.13;;;13.78;55.88
8039;BME280;4062;49.844;8.120;2023-01-24T01:48:48;101027.53;;;13.79;55.96
8039;BME280;4062;49.844;8.120;2023-01-24T01:50:56;101034.59;;;13.78;55.92
8039;BME280;4062;49.844;8.120;2023-01-24T01:52:58;101024.88;;;13.77;55.66
8039;BME280;4062;49.844;8.120;2023-01-24T01:55:02;101021.34;;;13.76;55.84
8039;BME280;4062;49.844;8.120;2023-01-24T01:57:09;101020.47;;;13.78;55.91
8039;BME280;4062;49.844;8.120;2023-01-24T01:59:16;101029.31;;;13.76;55.91
8039;BME280;4062;49.844;8.120;2023-01-24T02:01:18;101031.97;;;13.76;55.89
8039;BME280;4062;49.844;8.120;2023-01-24T02:03:26;101036.44;;;13.76;56.01
8039;BME280;4062;49.844;8.120;2023-01-24T02:05:38;101047.91;;;13.76;55.77
8039;BME280;4062;49.844;8.120;2023-01-24T02:07:44;101041.75;;;13.76;55.87
8039;BME280;4062;49.844;8.120;2023-01-24T02:09:51;101035.53;;;13.75;55.80
8039;BME280;4062;49.844;8.120;2023-01-24T02:11:54;101044.41;;;13.76;56.07
8039;BME280;4062;49.844;8.120;2023-01-24T02:13:57;101052.38;;;13.76;55.78
8039;BME280;4062;49.844;8.120;2023-01-24T02:16:18;101048.81;;;13.75;55.96
8039;BME280;4062;49.844;8.120;2023-01-24T02:18:19;101054.13;;;13.75;56.04
8039;BME280;4062;49.844;8.120;2023-01-24T02:20:35;101054.16;;;13.74;55.57
8039;BME280;4062;49.844;8.120;2023-01-24T02:25:31;101061.22;;;13.75;55.99
8039;BME280;4062;49.844;8.120;2023-01-24T02:27:35;101059.47;;;13.74;55.80
8039;BME280;4062;49.844;8.120;2023-01-24T02:29:35;101055.03;;;13.74;56.01
8039;BME280;4062;49.844;8.120;2023-01-24T02:32:00;101059.47;;;13.74;55.98
8039;BME280;4062;49.844;8.120;2023-01-24T02:34:00;101063.88;;;13.73;55.72
8039;BME280;4062;49.844;8.120;2023-01-24T02:38:22;101053.25;;;13.73;56.04
8039;BME280;4062;49.844;8.120;2023-01-24T02:40:26;101062.16;;;13.72;55.90
8039;BME280;4062;49.844;8.120;2023-01-24T02:42:33;101067.47;;;13.72;55.94
8039;BME280;4062;49.844;8.120;2023-01-24T02:46:46;101058.59;;;13.72;55.97
8039;BME280;4062;49.844;8.120;2023-01-24T02:48:49;101052.41;;;13.71;55.98
8039;BME280;4062;49.844;8.120;2023-01-24T02:50:50;101055.94;;;13.72;56.08
8039;BME280;4062;49.844;8.120;2023-01-24T02:53:09;101063.91;;;13.72;55.87
8039;BME280;4062;49.844;8.120;2023-01-24T02:55:28;101067.47;;;13.72;55.94
8039;BME280;4062;49.844;8.120;2023-01-24T02:57:29;101065.69;;;13.71;56.11
8039;BME280;4062;49.844;8.120;2023-01-24T02:59:48;101069.22;;;13.72;56.24
8039;BME280;4062;49.844;8.120;2023-01-24T03:01:49;101062.16;;;13.71;56.04
8039;BME280;4062;49.844;8.120;2023-01-24T03:03:50;101064.81;;;13.71;56.09
8039;BME280;4062;49.844;8.120;2023-01-24T03:05:52;101064.81;;;13.71;56.08
8039;BME280;4062;49.844;8.120;2023-01-24T03:08:03;101065.69;;;13.71;55.95
8039;BME280;4062;49.844;8.120;2023-01-24T03:10:04;101058.63;;;13.70;56.05
8039;BME280;4062;49.844;8.120;2023-01-24T03:12:06;101059.50;;;13.71;55.91
8039;BME280;4062;49.844;8.120;2023-01-24T03:14:29;101055.97;;;13.70;55.98
8039;BME280;4062;49.844;8.120;2023-01-24T03:16:49;101062.16;;;13.69;56.13
8039;BME280;4062;49.844;8.120;2023-01-24T03:19:08;101057.72;;;13.70;56.07
8039;BME280;4062;49.844;8.120;2023-01-24T03:21:27;101057.72;;;13.70;56.09
8039;BME280;4062;49.844;8.120;2023-01-24T03:23:47;101063.94;;;13.70;56.21
8039;BME280;4062;49.844;8.120;2023-01-24T03:26:06;101056.84;;;13.69;55.97
8039;BME280;4062;49.844;8.120;2023-01-24T03:28:25;101057.72;;;13.70;55.92
8039;BME280;4062;49.844;8.120;2023-01-24T03:30:44;101053.31;;;13.69;56.11
8039;BME280;4062;49.844;8.120;2023-01-24T03:33:08;101057.72;;;13.70;56.02
8039;BME280;4062;49.844;8.120;2023-01-24T03:35:28;101055.97;;;13.70;56.02
8039;BME280;4062;49.844;8.120;2023-01-24T03:37:28;101048.88;;;13.69;55.91
8039;BME280;4062;49.844;8.120;2023-01-24T03:39:49;101066.59;;;13.69;55.96
8039;BME280;4062;49.844;8.120;2023-01-24T03:42:01;101062.19;;;13.68;56.05
8039;BME280;4062;49.844;8.120;2023-01-24T03:44:02;101071.00;;;13.70;56.05
8039;BME280;4062;49.844;8.120;2023-01-24T03:46:02;101071.91;;;13.69;56.06
8039;BME280;4062;49.844;8.120;2023-01-24T03:48:16;101076.34;;;13.68;56.03
8039;BME280;4062;49.844;8.120;2023-01-24T03:50:32;101066.59;;;13.69;56.13
8039;BME280;4062;49.844;8.120;2023-01-24T03:52:51;101081.66;;;13.68;56.16
8039;BME280;4062;49.844;8.120;2023-01-24T03:54:56;101074.56;;;13.69;56.09
8039;BME280;4062;49.844;8.120;2023-01-24T03:56:57;101074.56;;;13.69;55.62
8039;BME280;4062;49.844;8.120;2023-01-24T03:58:59;101075.47;;;13.68;56.03
8039;BME280;4062;49.844;8.120;2023-01-24T04:01:04;101074.56;;;13.67;56.18
8039;BME280;4062;49.844;8.120;2023-01-24T04:03:30;101079.00;;;13.68;56.13
8039;BME280;4062;49.844;8.120;2023-01-24T04:05:34;101079.03;;;13.67;56.01
8039;BME280;4062;49.844;8.120;2023-01-24T04:07:34;101079.03;;;13.67;55.96
8039;BME280;4062;49.844;8.120;2023-01-24T04:09:38;101078.13;;;13.68;56.02
8039;BME280;4062;49.844;8.120;2023-01-24T04:11:39;101076.38;;;13.67;55.98
8039;BME280;4062;49.844;8.120;2023-01-24T04:13:55;101086.09;;;13.68;56.16
8039;BME280;4062;49.844;8.120;2023-01-24T04:15:57;101082.53;;;13.67;56.00
8039;BME280;4062;49.844;8.120;2023-01-24T04:18:35;101081.69;;;13.67;56.16
8039;BME280;4062;49.844;8.120;2023-01-24T04:20:39;101080.78;;;13.66;56.12
8039;BME280;4062;49.844;8.120;2023-01-24T04:22:40;101080.78;;;13.66;55.96
8039;BME280;4062;49.844;8.120;2023-01-24T04:24:41;101075.47;;;13.66;55.94
8039;BME280;4062;49.844;8.120;2023-01-24T04:26:41;101074.59;;;13.66;56.07
8039;BME280;4062;49.844;8.120;2023-01-24T04:28:47;101078.13;;;13.66;55.91
8039;BME280;4062;49.844;8.120;2023-01-24T04:30:47;101073.72;;;13.67;56.39
8039;BME280;4062;49.844;8.120;2023-01-24T04:33:02;101083.44;;;13.66;56.04
8039;BME280;4062;49.844;8.120;2023-01-24T04:35:03;101078.13;;;13.66;55.98
8039;BME280;4062;49.844;8.120;2023-01-24T04:37:21;101073.72;;;13.65;56.05
8039;BME280;4062;49.844;8.120;2023-01-24T04:39:21;101071.06;;;13.65;55.97
8039;BME280;4062;49.844;8.120;2023-01-24T04:41:34;101069.28;;;13.64;56.16
8039;BME280;4062;49.844;8.120;2023-01-24T04:43:36;101072.84;;;13.65;56.14
8039;BME280;4062;49.844;8.120;2023-01-24T04:45:38;101074.59;;;13.66;56.04
8039;BME280;4062;49.844;8.120;2023-01-24T04:47:41;101068.41;;;13.65;56.12
8039;BME280;4062;49.844;8.120;2023-01-24T04:49:42;101075.50;;;13.65;56.00
8039;BME280;4062;49.844;8.120;2023-01-24T04:51:48;101079.91;;;13.64;56.01
8039;BME280;4062;49.844;8.120;2023-01-24T04:53:57;101078.16;;;13.65;56.11
8039;BME280;4062;49.844;8.120;2023-01-24T04:56:01;101078.16;;;13.65;55.89
8039;BME280;4062;49.844;8.120;2023-01-24T04:58:03;101087.88;;;13.64;56.14
8039;BME280;4062;49.844;8.120;2023-01-24T05:00:04;101079.03;;;13.65;55.94
8039;BME280;4062;49.844;8.120;2023-01-24T05:02:05;101081.69;;;13.64;56.06
8039;BME280;4062;49.844;8.120;2023-01-24T05:04:13;101085.22;;;13.64;56.14
8039;BME280;4062;49.844;8.120;2023-01-24T05:06:15;101080.84;;;13.63;56.08
8039;BME280;4062;49.844;8.120;2023-01-24T05:08:15;101088.78;;;13.65;56.11
8039;BME280;4062;49.844;8.120;2023-01-24T05:10:16;101091.44;;;13.65;56.14
8039;BME280;4062;49.844;8.120;2023-01-24T05:12:19;101088.81;;;13.63;55.95
8039;BME280;4062;49.844;8.120;2023-01-24T05:14:20;101092.31;;;13.64;56.02
8039;BME280;4062;49.844;8.120;2023-01-24T05:16:20;101085.22;;;13.64;56.36
8039;BME280;4062;49.844;8.120;2023-01-24T05:18:22;101088.81;;;13.63;55.96
8039;BME280;4062;49.844;8.120;2023-01-24T05:20:23;101094.13;;;13.63;56.09
8039;BME280;4062;49.844;8.120;2023-01-24T05:22:24;101087.88;;;13.64;56.42
8039;BME280;4062;49.844;8.120;2023-01-24T05:24:25;101097.63;;;13.64;56.13
8039;BME280;4062;49.844;8.120;2023-01-24T05:26:26;101098.50;;;13.64;56.12
8039;BME280;4062;49.844;8.120;2023-01-24T05:28:27;101095.00;;;13.62;56.06
8039;BME280;4062;49.844;8.120;2023-01-24T05:30:28;101096.78;;;13.63;55.92
8039;BME280;4062;49.844;8.120;2023-01-24T05:32:34;101093.22;;;13.63;55.99
8039;BME280;4062;49.844;8.120;2023-01-24T05:34:35;101096.78;;;13.63;56.08
8039;BME280;4062;49.844;8.120;2023-01-24T05:36:38;101099.41;;;13.62;56.06
8039;BME280;4062;49.844;8.120;2023-01-24T05:38:40;101098.53;;;13.63;56.06
8039;BME280;4062;49.844;8.120;2023-01-24T05:40:41;101098.53;;;13.63;55.95
8039;BME280;4062;49.844;8.120;2023-01-24T05:42:42;101097.66;;;13.62;56.02
8039;BME280;4062;49.844;8.120;2023-01-24T05:44:43;101108.28;;;13.62;56.01
8039;BME280;4062;49.844;8.120;2023-01-24T05:46:43;101104.72;;;13.62;56.13
8039;BME280;4062;49.844;8.120;2023-01-24T05:49:07;101110.94;;;13.62;55.97
8039;BME280;4062;49.844;8.120;2023-01-24T05:51:09;101108.28;;;13.62;56.04
8039;BME280;4062;49.844;8.120;2023-01-24T05:53:10;101110.03;;;13.62;55.93
8039;BME280;4062;49.844;8.120;2023-01-24T05:55:11;101107.38;;;13.62;56.09
8039;BME280;4062;49.844;8.120;2023-01-24T05:57:17;101110.03;;;13.62;56.06
8039;BME280;4062;49.844;8.120;2023-01-24T05:59:38;101114.50;;;13.61;56.01
8039;BME280;4062;49.844;8.120;2023-01-24T06:01:40;101111.84;;;13.61;55.91
8039;BME280;4062;49.844;8.120;2023-01-24T06:03:44;101111.84;;;13.61;56.15
8039;BME280;4062;49.844;8.120;2023-01-24T06:05:52;101114.50;;;13.61;56.00
8039;BME280;4062;49.844;8.120;2023-01-24T06:07:53;101128.63;;;13.62;56.02
8039;BME280;4062;49.844;8.120;2023-01-24T06:09:53;101118.03;;;13.60;55.96
8039;BME280;4062;49.844;8.120;2023-01-24T06:11:54;101115.38;;;13.60;55.97
8039;BME280;4062;49.844;8.120;2023-01-24T06:13:55;101114.47;;;13.59;56.05
8039;BME280;4062;49.844;8.120;2023-01-24T06:16:05;101117.13;;;13.61;56.11
8039;BME280;4062;49.844;8.120;2023-01-24T06:18:11;101110.94;;;13.60;55.90
8039;BME280;4062;49.844;8.120;2023-01-24T06:20:13;101113.59;;;13.60;55.94
8039;BME280;4062;49.844;8.120;2023-01-24T06:22:28;101109.16;;;13.59;55.96
8039;BME280;4062;49.844;8.120;2023-01-24T06:24:33;101102.09;;;13.60;56.00
8039;BME280;4062;49.844;8.120;2023-01-24T06:26:53;101109.16;;;13.59;55.93
8039;BME280;4062;49.844;8.120;2023-01-24T06:28:55;101105.66;;;13.59;55.92
8039;BME280;4062;49.844;8.120;2023-01-24T06:31:02;101116.25;;;13.60;56.01
8039;BME280;4062;49.844;8.120;2023-01-24T06:39:49;101122.44;;;13.59;55.96
8039;BME280;4062;49.844;8.120;2023-01-24T06:41:50;101129.53;;;13.59;55.99
8039;BME280;4062;49.844;8.120;2023-01-24T06:43:51;101129.53;;;13.59;56.05
8039;BME280;4062;49.844;8.120;2023-01-24T06:45:52;101129.53;;;13.59;56.11
8039;BME280;4062;49.844;8.120;2023-01-24T06:47:52;101135.72;;;13.59;55.89
8039;BME280;4062;49.844;8.120;2023-01-24T06:49:53;101136.66;;;13.58;56.12
8039;BME280;4062;49.844;8.120;2023-01-24T06:51:53;101140.16;;;13.59;55.91
8039;BME280;4062;49.844;8.120;2023-01-24T06:53:53;101143.72;;;13.58;56.05
8039;BME280;4062;49.844;8.120;2023-01-24T06:55:54;101143.72;;;13.58;56.03
8039;BME280;4062;49.844;8.120;2023-01-24T06:57:58;101155.25;;;13.58;55.85
8039;BME280;4062;49.844;8.120;2023-01-24T06:59:59;101155.25;;;13.58;55.99
8039;BME280;4062;49.844;8.120;2023-01-24T07:02:00;101161.41;;;13.59;56.02
8039;BME280;4062;49.844;8.120;2023-01-24T07:04:00;101157.91;;;13.58;55.72
8039;BME280;4062;49.844;8.120;2023-01-24T07:06:00;101153.44;;;13.59;56.09
8039;BME280;4062;49.844;8.120;2023-01-24T07:08:01;101157.00;;;13.58;56.01
8039;BME280;4062;49.844;8.120;2023-01-24T07:10:02;101157.91;;;13.58;55.92
8039;BME280;4062;49.844;8.120;2023-01-24T07:12:03;101159.66;;;13.58;56.12
8039;BME280;4062;49.844;8.120;2023-01-24T07:14:03;101163.19;;;13.57;55.90
8039;BME280;4062;49.844;8.120;2023-01-24T07:16:04;101159.66;;;13.58;55.87
8039;BME280;4062;49.844;8.120;2023-01-24T07:18:06;101166.75;;;13.57;56.00
8039;BME280;4062;49.844;8.120;2023-01-24T07:20:07;101161.44;;;13.57;56.25
8039;BME280;4062;49.844;8.120;2023-01-24T07:22:12;101167.63;;;13.58;55.62
8039;BME280;4062;49.844;8.120;2023-01-24T07:24:17;101164.09;;;13.57;55.84
8039;BME280;4062;49.844;8.120;2023-01-24T07:26:19;101177.38;;;13.57;55.85
8039;BME280;4062;49.844;8.120;2023-01-24T07:28:20;101180.91;;;13.58;55.90
8039;BME280;4062;49.844;8.120;2023-01-24T07:30:20;101172.06;;;13.57;56.00
8039;BME280;4062;49.844;8.120;2023-01-24T07:32:21;101166.75;;;13.56;56.05
8039;BME280;4062;49.844;8.120;2023-01-24T07:34:21;101168.50;;;13.57;55.91
8039;BME280;4062;49.844;8.120;2023-01-24T07:36:22;101171.16;;;13.57;56.00
8039;BME280;4062;49.844;8.120;2023-01-24T07:38:22;101178.25;;;13.56;55.91
8039;BME280;4062;49.844;8.120;2023-01-24T07:40:22;101172.94;;;13.56;56.08
8039;BME280;4062;49.844;8.120;2023-01-24T07:42:23;101173.81;;;13.57;55.96
8039;BME280;4062;49.844;8.120;2023-01-24T07:44:23;101179.13;;;13.57;55.71
8039;BME280;4062;49.844;8.120;2023-01-24T07:46:24;101182.69;;;13.56;56.13
8039;BME280;4062;49.844;8.120;2023-01-24T07:48:24;101180.03;;;13.56;55.84
8039;BME280;4062;49.844;8.120;2023-01-24T07:50:26;101188.00;;;13.56;56.05
8039;BME280;4062;49.844;8.120;2023-01-24T07:52:27;101188.00;;;13.56;55.93
8039;BME280;4062;49.844;8.120;2023-01-24T07:54:27;101192.41;;;13.57;55.99
8039;BME280;4062;49.844;8.120;2023-01-24T07:56:27;101194.19;;;13.56;55.75
8039;BME280;4062;49.844;8.120;2023-01-24T07:58:29;101195.94;;;13.56;55.89
8039;BME280;4062;49.844;8.120;2023-01-24T08:00:30;101193.28;;;13.56;55.94
8039;BME280;4062;49.844;8.120;2023-01-24T08:02:30;101195.94;;;13.56;55.86
8039;BME280;4062;49.844;8.120;2023-01-24T08:04:31;101205.72;;;13.55;55.94
8039;BME280;4062;49.844;8.120;2023-01-24T08:06:31;101203.91;;;13.56;55.93
8039;BME280;4062;49.844;8.120;2023-01-24T08:08:31;101206.56;;;13.56;55.91
8039;BME280;4062;49.844;8.120;2023-01-24T08:10:32;101204.81;;;13.55;55.99
8039;BME280;4062;49.844;8.120;2023-01-24T08:12:32;101203.91;;;13.56;55.86
8039;BME280;4062;49.844;8.120;2023-01-24T08:14:33;101196.84;;;13.55;55.96
8039;BME280;4062;49.844;8.120;2023-01-24T08:16:33;101204.81;;;13.55;56.10
8039;BME280;4062;49.844;8.120;2023-01-24T08:18:34;101207.47;;;13.55;56.00
8039;BME280;4062;49.844;8.120;2023-01-24T08:20:34;101210.13;;;13.55;55.92
8039;BME280;4062;49.844;8.120;2023-01-24T08:22:37;101202.16;;;13.55;55.87
8039;BME280;4062;49.844;8.120;2023-01-24T08:24:38;101204.81;;;13.55;56.03
8039;BME280;4062;49.844;8.120;2023-01-24T08:26:38;101209.25;;;13.54;56.03
8039;BME280;4062;49.844;8.120;2023-01-24T08:28:39;101209.25;;;13.54;55.95
8039;BME280;4062;49.844;8.120;2023-01-24T08:30:39;101212.78;;;13.55;56.02
8039;BME280;4062;49.844;8.120;2023-01-24T08:32:40;101209.25;;;13.54;56.08
8039;BME280;4062;49.844;8.120;2023-01-24T08:34:40;101211.03;;;13.54;56.10
8039;BME280;4062;49.844;8.120;2023-01-24T08:36:40;101205.72;;;13.54;56.04
8039;BME280;4062;49.844;8.120;2023-01-24T08:38:41;101211.03;;;13.54;56.08
8039;BME280;4062;49.844;8.120;2023-01-24T08:40:42;101217.22;;;13.54;55.89
8039;BME280;4062;49.844;8.120;2023-01-24T08:42:43;101216.34;;;13.54;55.68
8039;BME280;4062;49.844;8.120;2023-01-24T08:44:43;101210.16;;;13.53;56.11
8039;BME280;4062;49.844;8.120;2023-01-24T08:46:43;101212.81;;;13.53;56.06
8039;BME280;4062;49.844;8.120;2023-01-24T08:48:44;101215.44;;;13.53;56.01
8039;BME280;4062;49.844;8.120;2023-01-24T08:50:44;101220.78;;;13.53;55.87
8039;BME280;4062;49.844;8.120;2023-01-24T08:52:45;101220.78;;;13.53;55.97
8039;BME280;4062;49.844;8.120;2023-01-24T08:54:46;101218.09;;;13.53;55.93
8039;BME280;4062;49.844;8.120;2023-01-24T08:56:47;101223.41;;;13.53;55.83
8039;BME280;4062;49.844;8.120;2023-01-24T08:58:47;101220.78;;;13.53;56.00
8039;BME280;4062;49.844;8.120;2023-01-24T09:00:47;101226.06;;;13.53;56.09
8039;BME280;4062;49.844;8.120;2023-01-24T09:02:50;101215.44;;;13.53;56.06
8039;BME280;4062;49.844;8.120;2023-01-24T09:04:50;101218.09;;;13.53;55.92
8039;BME280;4062;49.844;8.120;2023-01-24T09:06:51;101226.06;;;13.53;56.07
8039;BME280;4062;49.844;8.120;2023-01-24T09:08:52;101219.91;;;13.53;56.04
8039;BME280;4062;49.844;8.120;2023-01-24T09:10:57;101227.84;;;13.54;55.75
8039;BME280;4062;49.844;8.120;2023-01-24T09:12:58;101225.16;;;13.56;56.06
8039;BME280;4062;49.844;8.120;2023-01-24T09:14:58;101234.03;;;13.56;55.90
8039;BME280;4062;49.844;8.120;2023-01-24T09:16:59;101231.34;;;13.58;55.90
8039;BME280;4062;49.844;8.120;2023-01-24T09:18:59;101231.34;;;13.59;55.90
8039;BME280;4062;49.844;8.120;2023-01-24T09:21:01;101241.09;;;13.62;55.63
8039;BME280;4062;49.844;8.120;2023-01-24T09:23:09;101239.28;;;13.64;55.94
8039;BME280;4062;49.844;8.120;2023-01-24T09:25:12;101244.59;;;13.66;55.94
8039;BME280;4062;49.844;8.120;2023-01-24T09:27:12;101248.13;;;13.68;55.98
8039;BME280;4062;49.844;8.120;2023-01-24T09:29:12;101244.56;;;13.69;56.11
8039;BME280;4062;49.844;8.120;2023-01-24T09:31:13;101246.31;;;13.71;55.98
8039;BME280;4062;49.844;8.120;2023-01-24T09:33:15;101239.22;;;13.72;56.21
8039;BME280;4062;49.844;8.120;2023-01-24T09:35:17;101246.28;;;13.74;56.22
8039;BME280;4062;49.844;8.120;2023-01-24T09:37:19;101251.59;;;13.76;56.19
8039;BME280;4062;49.844;8.120;2023-01-24T09:39:19;101244.50;;;13.80;56.01
8039;BME280;4062;49.844;8.120;2023-01-24T09:45:44;101240.88;;;13.87;55.86
8039;BME280;4062;49.844;8.120;2023-01-24T09:47:53;101241.75;;;13.89;56.00
8039;BME280;4062;49.844;8.120;2023-01-24T09:50:04;101248.84;;;13.90;56.07
8039;BME280;4062;49.844;8.120;2023-01-24T09:52:15;101255.88;;;13.91;56.19
8039;BME280;4062;49.844;8.120;2023-01-24T09:55:13;101255.88;;;13.94;56.19
8039;BME280;4062;49.844;8.120;2023-01-24T09:56:46;101250.53;;;13.96;56.11
8039;BME280;4062;49.844;8.120;2023-01-24T10:01:12;101254.97;;;13.98;56.09
8039;BME280;4062;49.844;8.120;2023-01-24T10:03:21;101256.75;;;13.99;56.17
8039;BME280;4062;49.844;8.120;2023-01-24T10:05:27;101255.81;;;14.00;55.96
8039;BME280;4062;49.844;8.120;2023-01-24T10:09:52;101244.31;;;14.00;56.06
8039;BME280;4062;49.844;8.120;2023-01-24T10:12:24;101258.47;;;14.00;56.07
8039;BME280;4062;49.844;8.120;2023-01-24T10:15:14;101250.50;;;14.00;56.01
8039;BME280;4062;49.844;8.120;2023-01-24T10:19:52;101253.19;;;13.99;56.13
8039;BME280;4062;49.844;8.120;2023-01-24T10:22:05;101257.59;;;14.00;56.15
8039;BME280;4062;49.844;8.120;2023-01-24T10:24:12;101254.09;;;13.99;56.20
8039;BME280;4062;49.844;8.120;2023-01-24T10:26:20;101254.94;;;14.00;55.96
8039;BME280;4062;49.844;8.120;2023-01-24T10:28:32;101264.72;;;13.99;56.00
8039;BME280;4062;49.844;8.120;2023-01-24T10:30:57;101254.97;;;13.98;55.98
8039;BME280;4062;49.844;8.120;2023-01-24T10:33:02;101260.28;;;13.98;56.00
8039;BME280;4062;49.844;8.120;2023-01-24T10:35:13;101264.69;;;13.98;55.98
8039;BME280;4062;49.844;8.120;2023-01-24T10:37:22;101260.28;;;13.98;56.03
8039;BME280;4062;49.844;8.120;2023-01-24T10:39:23;101258.53;;;13.97;56.03
8039;BME280;4062;49.844;8.120;2023-01-24T10:41:26;101269.16;;;13.97;56.10
8039;BME280;4062;49.844;8.120;2023-01-24T10:43:30;101266.50;;;13.97;55.98
8039;BME280;4062;49.844;8.120;2023-01-24T10:50:34;101262.06;;;13.96;56.01
8039;BME280;4062;49.844;8.120;2023-01-24T10:52:34;101254.13;;;13.95;56.14
8039;BME280;4062;49.844;8.120;2023-01-24T10:54:56;101250.56;;;13.94;55.97
8039;BME280;4062;49.844;8.120;2023-01-24T10:56:57;101257.66;;;13.94;56.03
8039;BME280;4062;49.844;8.120;2023-01-24T10:59:04;101247.91;;;13.94;56.08
8039;BME280;4062;49.844;8.120;2023-01-24T11:01:21;101246.13;;;13.93;56.14
8039;BME280;4062;49.844;8.120;2023-01-24T11:03:25;101246.13;;;13.93;55.87
8039;BME280;4062;49.844;8.120;2023-01-24T11:05:48;101237.28;;;13.93;55.88
8039;BME280;4062;49.844;8.120;2023-01-24T11:07:52;101236.41;;;13.92;55.91
8039;BME280;4062;49.844;8.120;2023-01-24T11:09:53;101242.63;;;13.93;56.00
8039;BME280;4062;49.844;8.120;2023-01-24T11:11:55;101238.19;;;13.91;56.13
8039;BME280;4062;49.844;8.120;2023-01-24T11:13:58;101239.06;;;13.92;55.98
8039;BME280;4062;49.844;8.120;2023-01-24T11:16:20;101237.28;;;13.91;55.93
8039;BME280;4062;49.844;8.120;2023-01-24T11:18:25;101235.53;;;13.91;55.85
8039;BME280;4062;49.844;8.120;2023-01-24T11:20:30;101233.75;;;13.90;55.87
8039;BME280;4062;49.844;8.120;2023-01-24T11:22:31;101234.63;;;13.91;56.04
8039;BME280;4062;49.844;8.120;2023-01-24T11:24:42;101235.56;;;13.90;55.87
8039;BME280;4062;49.844;8.120;2023-01-24T11:27:02;101232.00;;;13.89;55.93
8039;BME280;4062;49.844;8.120;2023-01-24T11:29:05;101229.34;;;13.89;55.83
8039;BME280;4062;49.844;8.120;2023-01-24T11:31:17;101232.00;;;13.89;55.83
8039;BME280;4062;49.844;8.120;2023-01-24T11:33:48;101227.59;;;13.90;55.95
8039;BME280;4062;49.844;8.120;2023-01-24T11:36:02;101226.72;;;13.88;55.76
8039;BME280;4062;49.844;8.120;2023-01-24T11:38:17;101224.91;;;13.88;55.69
8039;BME280;4062;49.844;8.120;2023-01-24T11:40:41;101222.25;;;13.88;55.92